sensor_id;sensor_type;location;lat;lon;timestamp;P1;durP1;ratioP1;P2;durP2;ratioP2
3443;SDS011;1736;52.068;6.968;2023-11-21T00:00:57;32.97;;;15.93;;
3443;SDS011;1736;52.068;6.968;2023-11-21T00:03:24;29.20;;;15.80;;
3443;SDS011;1736;52.068;6.968;2023-11-21T00:05:53;31.07;;;16.80;;
3443;SDS011;1736;52.068;6.968;2023-11-21T00:08:21;34.43;;;17.00;;
3443;SDS011;1736;52.068;6.968;2023-11-21T00:10:48;25.47;;;15.10;;
3443;SDS011;1736;52.068;6.968;2023-11-21T00:13:14;32.23;;;17.60;;
3443;SDS011;1736;52.068;6.968;2023-11-21T00:15:42;34.10;;;19.30;;
3443;SDS011;1736;52.068;6.968;2023-11-21T00:18:09;52.67;;;20.70;;
3443;SDS011;1736;52.068;6.968;2023-11-21T00:20:36;40.13;;;18.50;;
3443;SDS011;1736;52.068;6.968;2023-11-21T00:23:03;33.93;;;18.87;;
3443;SDS011;1736;52.068;6.968;2023-11-21T00:25:30;43.87;;;18.93;;
3443;SDS011;1736;52.068;6.968;2023-11-21T00:27:57;38.60;;;19.50;;
3443;SDS011;1736;52.068;6.968;2023-11-21T00:30:26;35.40;;;19.67;;
3443;SDS011;1736;52.068;6.968;2023-11-21T00:32:53;33.43;;;17.97;;
3443;SDS011;1736;52.068;6.968;2023-11-21T00:35:20;35.20;;;18.83;;
3443;SDS011;1736;52.068;6.968;2023-11-21T00:37:47;35.00;;;18.77;;
3443;SDS011;1736;52.068;6.968;2023-11-21T00:40:14;38.10;;;18.60;;
3443;SDS011;1736;52.068;6.968;2023-11-21T00:42:45;42.00;;;20.87;;
3443;SDS011;1736;52.068;6.968;2023-11-21T00:45:12;37.87;;;18.93;;
3443;SDS011;1736;52.068;6.968;2023-11-21T00:47:39;34.77;;;19.40;;
3443;SDS011;1736;52.068;6.968;2023-11-21T00:50:06;39.37;;;19.07;;
3443;SDS011;1736;52.068;6.968;2023-11-21T00:52:33;39.37;;;19.93;;
3443;SDS011;1736;52.068;6.968;2023-11-21T00:55:01;36.83;;;18.00;;
3443;SDS011;1736;52.068;6.968;2023-11-21T00:57:28;39.70;;;18.83;;
3443;SDS011;1736;52.068;6.968;2023-11-21T00:59:56;39.90;;;20.17;;
3443;SDS011;1736;52.068;6.968;2023-11-21T01:02:22;36.50;;;18.80;;
3443;SDS011;1736;52.068;6.968;2023-11-21T01:04:50;38.10;;;19.07;;
3443;SDS011;1736;52.068;6.968;2023-11-21T01:07:17;35.30;;;19.10;;
3443;SDS011;1736;52.068;6.968;2023-11-21T01:09:45;43.87;;;19.30;;
3443;SDS011;1736;52.068;6.968;2023-11-21T01:12:12;36.30;;;18.17;;
3443;SDS011;1736;52.068;6.968;2023-11-21T01:14:38;34.80;;;19.00;;
3443;SDS011;1736;52.068;6.968;2023-11-21T01:17:06;39.00;;;19.70;;
3443;SDS011;1736;52.068;6.968;2023-11-21T01:19:33;40.80;;;19.67;;
3443;SDS011;1736;52.068;6.968;2023-11-21T01:21:59;39.37;;;19.17;;
3443;SDS011;1736;52.068;6.968;2023-11-21T01:24:26;36.93;;;19.50;;
3443;SDS011;1736;52.068;6.968;2023-11-21T01:26:53;38.03;;;19.60;;
3443;SDS011;1736;52.068;6.968;2023-11-21T01:29:19;43.40;;;22.03;;
3443;SDS011;1736;52.068;6.968;2023-11-21T01:31:46;38.93;;;20.10;;
3443;SDS011;1736;52.068;6.968;2023-11-21T01:34:14;34.90;;;19.67;;
3443;SDS011;1736;52.068;6.968;2023-11-21T01:36:40;37.70;;;18.87;;
3443;SDS011;1736;52.068;6.968;2023-11-21T01:39:07;44.67;;;20.97;;
3443;SDS011;1736;52.068;6.968;2023-11-21T01:41:36;38.50;;;19.57;;
3443;SDS011;1736;52.068;6.968;2023-11-21T01:44:03;38.57;;;18.50;;
3443;SDS011;1736;52.068;6.968;2023-11-21T01:46:32;38.93;;;20.07;;
3443;SDS011;1736;52.068;6.968;2023-11-21T01:48:59;44.20;;;22.37;;
3443;SDS011;1736;52.068;6.968;2023-11-21T01:51:28;43.90;;;20.87;;
3443;SDS011;1736;52.068;6.968;2023-11-21T01:53:54;42.37;;;21.50;;
3443;SDS011;1736;52.068;6.968;2023-11-21T01:56:21;53.57;;;22.30;;
3443;SDS011;1736;52.068;6.968;2023-11-21T01:58:48;48.30;;;22.13;;
3443;SDS011;1736;52.068;6.968;2023-11-21T02:01:15;40.73;;;20.87;;
3443;SDS011;1736;52.068;6.968;2023-11-21T02:03:43;44.20;;;22.03;;
3443;SDS011;1736;52.068;6.968;2023-11-21T02:06:10;45.73;;;22.00;;
3443;SDS011;1736;52.068;6.968;2023-11-21T02:08:38;50.83;;;23.03;;
3443;SDS011;1736;52.068;6.968;2023-11-21T02:11:05;46.13;;;21.73;;
3443;SDS011;1736;52.068;6.968;2023-11-21T02:13:31;42.50;;;21.80;;
3443;SDS011;1736;52.068;6.968;2023-11-21T02:15:58;54.07;;;23.00;;
3443;SDS011;1736;52.068;6.968;2023-11-21T02:18:25;51.17;;;22.73;;
3443;SDS011;1736;52.068;6.968;2023-11-21T02:20:54;53.67;;;24.67;;
3443;SDS011;1736;52.068;6.968;2023-11-21T02:23:23;49.50;;;23.33;;
3443;SDS011;1736;52.068;6.968;2023-11-21T02:25:53;52.83;;;23.43;;
3443;SDS011;1736;52.068;6.968;2023-11-21T02:28:20;49.50;;;23.80;;
3443;SDS011;1736;52.068;6.968;2023-11-21T02:30:50;56.10;;;25.03;;
3443;SDS011;1736;52.068;6.968;2023-11-21T02:33:20;51.90;;;24.47;;
3443;SDS011;1736;52.068;6.968;2023-11-21T02:35:47;59.57;;;25.70;;
3443;SDS011;1736;52.068;6.968;2023-11-21T02:38:14;55.00;;;24.53;;
3443;SDS011;1736;52.068;6.968;2023-11-21T02:40:42;62.80;;;28.90;;
3443;SDS011;1736;52.068;6.968;2023-11-21T02:43:08;63.73;;;25.43;;
3443;SDS011;1736;52.068;6.968;2023-11-21T02:45:35;51.97;;;24.10;;
3443;SDS011;1736;52.068;6.968;2023-11-21T02:48:02;56.97;;;27.30;;
3443;SDS011;1736;52.068;6.968;2023-11-21T02:50:29;55.43;;;25.33;;
3443;SDS011;1736;52.068;6.968;2023-11-21T02:52:56;59.13;;;25.67;;
3443;SDS011;1736;52.068;6.968;2023-11-21T02:55:25;64.30;;;26.03;;
3443;SDS011;1736;52.068;6.968;2023-11-21T02:57:53;55.37;;;25.13;;
3443;SDS011;1736;52.068;6.968;2023-11-21T03:00:21;63.63;;;24.83;;
3443;SDS011;1736;52.068;6.968;2023-11-21T03:02:49;58.13;;;25.83;;
3443;SDS011;1736;52.068;6.968;2023-11-21T03:05:16;56.43;;;24.23;;
3443;SDS011;1736;52.068;6.968;2023-11-21T03:07:42;60.70;;;25.60;;
3443;SDS011;1736;52.068;6.968;2023-11-21T03:10:10;53.73;;;25.20;;
3443;SDS011;1736;52.068;6.968;2023-11-21T03:12:37;60.60;;;26.27;;
3443;SDS011;1736;52.068;6.968;2023-11-21T03:15:05;55.53;;;25.33;;
3443;SDS011;1736;52.068;6.968;2023-11-21T03:17:33;53.67;;;24.73;;
3443;SDS011;1736;52.068;6.968;2023-11-21T03:20:00;57.87;;;25.80;;
3443;SDS011;1736;52.068;6.968;2023-11-21T03:22:27;53.63;;;24.97;;
3443;SDS011;1736;52.068;6.968;2023-11-21T03:24:53;56.30;;;27.03;;
3443;SDS011;1736;52.068;6.968;2023-11-21T03:27:20;63.47;;;26.60;;
3443;SDS011;1736;52.068;6.968;2023-11-21T03:29:47;48.30;;;24.83;;
3443;SDS011;1736;52.068;6.968;2023-11-21T03:32:16;56.53;;;25.23;;
3443;SDS011;1736;52.068;6.968;2023-11-21T03:34:52;52.57;;;25.60;;
3443;SDS011;1736;52.068;6.968;2023-11-21T03:37:21;51.53;;;24.77;;
3443;SDS011;1736;52.068;6.968;2023-11-21T03:39:47;62.83;;;27.30;;
3443;SDS011;1736;52.068;6.968;2023-11-21T03:42:14;54.67;;;26.03;;
3443;SDS011;1736;52.068;6.968;2023-11-21T03:44:40;53.93;;;25.20;;
3443;SDS011;1736;52.068;6.968;2023-11-21T03:47:07;54.17;;;26.00;;
3443;SDS011;1736;52.068;6.968;2023-11-21T03:49:35;51.13;;;23.43;;
3443;SDS011;1736;52.068;6.968;2023-11-21T03:52:02;54.37;;;26.77;;
3443;SDS011;1736;52.068;6.968;2023-11-21T03:54:28;53.80;;;24.00;;
3443;SDS011;1736;52.068;6.968;2023-11-21T03:56:55;51.90;;;23.03;;
3443;SDS011;1736;52.068;6.968;2023-11-21T03:59:22;52.30;;;24.90;;
3443;SDS011;1736;52.068;6.968;2023-11-21T04:01:49;53.13;;;24.10;;
3443;SDS011;1736;52.068;6.968;2023-11-21T04:04:16;53.10;;;23.60;;
3443;SDS011;1736;52.068;6.968;2023-11-21T04:06:44;49.43;;;24.20;;
3443;SDS011;1736;52.068;6.968;2023-11-21T04:09:10;54.60;;;24.80;;
3443;SDS011;1736;52.068;6.968;2023-11-21T04:11:37;53.13;;;25.17;;
3443;SDS011;1736;52.068;6.968;2023-11-21T04:14:04;56.30;;;25.87;;
3443;SDS011;1736;52.068;6.968;2023-11-21T04:16:30;51.97;;;25.10;;
3443;SDS011;1736;52.068;6.968;2023-11-21T04:18:58;55.37;;;25.53;;
3443;SDS011;1736;52.068;6.968;2023-11-21T04:21:25;57.37;;;25.43;;
3443;SDS011;1736;52.068;6.968;2023-11-21T04:23:53;53.47;;;24.87;;
3443;SDS011;1736;52.068;6.968;2023-11-21T04:26:20;64.10;;;26.53;;
3443;SDS011;1736;52.068;6.968;2023-11-21T04:28:46;63.60;;;27.87;;
3443;SDS011;1736;52.068;6.968;2023-11-21T04:31:13;57.03;;;26.83;;
3443;SDS011;1736;52.068;6.968;2023-11-21T04:33:40;63.80;;;25.87;;
3443;SDS011;1736;52.068;6.968;2023-11-21T04:36:07;59.67;;;25.90;;
3443;SDS011;1736;52.068;6.968;2023-11-21T04:38:34;55.60;;;27.60;;
3443;SDS011;1736;52.068;6.968;2023-11-21T04:41:02;60.70;;;26.47;;
3443;SDS011;1736;52.068;6.968;2023-11-21T04:43:28;59.33;;;27.53;;
3443;SDS011;1736;52.068;6.968;2023-11-21T04:45:55;58.90;;;27.53;;
3443;SDS011;1736;52.068;6.968;2023-11-21T04:48:21;66.17;;;28.20;;
3443;SDS011;1736;52.068;6.968;2023-11-21T04:50:48;66.90;;;27.33;;
3443;SDS011;1736;52.068;6.968;2023-11-21T04:53:15;59.80;;;27.90;;
3443;SDS011;1736;52.068;6.968;2023-11-21T04:55:42;71.43;;;28.80;;
3443;SDS011;1736;52.068;6.968;2023-11-21T04:58:10;54.10;;;25.70;;
3443;SDS011;1736;52.068;6.968;2023-11-21T05:00:38;56.87;;;26.00;;
3443;SDS011;1736;52.068;6.968;2023-11-21T05:03:06;52.20;;;24.80;;
3443;SDS011;1736;52.068;6.968;2023-11-21T05:05:33;58.00;;;25.23;;
3443;SDS011;1736;52.068;6.968;2023-11-21T05:08:00;53.63;;;25.73;;
3443;SDS011;1736;52.068;6.968;2023-11-21T05:10:27;56.70;;;26.37;;
3443;SDS011;1736;52.068;6.968;2023-11-21T05:12:55;53.80;;;25.07;;
3443;SDS011;1736;52.068;6.968;2023-11-21T05:15:23;54.80;;;25.40;;
3443;SDS011;1736;52.068;6.968;2023-11-21T05:17:49;55.03;;;24.90;;
3443;SDS011;1736;52.068;6.968;2023-11-21T05:20:17;56.33;;;24.80;;
3443;SDS011;1736;52.068;6.968;2023-11-21T05:22:46;46.70;;;24.50;;
3443;SDS011;1736;52.068;6.968;2023-11-21T05:25:13;44.63;;;23.53;;
3443;SDS011;1736;52.068;6.968;2023-11-21T05:27:40;53.33;;;25.70;;
3443;SDS011;1736;52.068;6.968;2023-11-21T05:30:07;48.70;;;24.07;;
3443;SDS011;1736;52.068;6.968;2023-11-21T05:32:39;57.80;;;26.20;;
3443;SDS011;1736;52.068;6.968;2023-11-21T05:35:07;55.70;;;26.30;;
3443;SDS011;1736;52.068;6.968;2023-11-21T05:37:39;65.13;;;26.40;;
3443;SDS011;1736;52.068;6.968;2023-11-21T05:40:06;53.97;;;26.70;;
3443;SDS011;1736;52.068;6.968;2023-11-21T05:42:34;47.93;;;24.80;;
3443;SDS011;1736;52.068;6.968;2023-11-21T05:45:01;50.27;;;23.50;;
3443;SDS011;1736;52.068;6.968;2023-11-21T05:47:35;45.83;;;23.43;;
3443;SDS011;1736;52.068;6.968;2023-11-21T05:50:04;62.17;;;26.30;;
3443;SDS011;1736;52.068;6.968;2023-11-21T05:52:34;47.50;;;24.40;;
3443;SDS011;1736;52.068;6.968;2023-11-21T05:55:01;51.17;;;24.83;;
3443;SDS011;1736;52.068;6.968;2023-11-21T05:57:27;53.57;;;25.27;;
3443;SDS011;1736;52.068;6.968;2023-11-21T05:59:55;51.43;;;25.77;;
3443;SDS011;1736;52.068;6.968;2023-11-21T06:02:22;46.13;;;23.50;;
3443;SDS011;1736;52.068;6.968;2023-11-21T06:04:48;52.47;;;25.07;;
3443;SDS011;1736;52.068;6.968;2023-11-21T06:07:16;47.93;;;23.17;;
3443;SDS011;1736;52.068;6.968;2023-11-21T06:09:43;42.17;;;21.53;;
3443;SDS011;1736;52.068;6.968;2023-11-21T06:12:10;53.43;;;23.93;;
3443;SDS011;1736;52.068;6.968;2023-11-21T06:14:36;53.27;;;23.97;;
3443;SDS011;1736;52.068;6.968;2023-11-21T06:17:03;59.80;;;25.77;;
3443;SDS011;1736;52.068;6.968;2023-11-21T06:19:30;50.63;;;24.83;;
3443;SDS011;1736;52.068;6.968;2023-11-21T06:21:56;52.03;;;25.47;;
3443;SDS011;1736;52.068;6.968;2023-11-21T06:24:24;55.93;;;25.20;;
3443;SDS011;1736;52.068;6.968;2023-11-21T06:26:51;55.50;;;26.20;;
3443;SDS011;1736;52.068;6.968;2023-11-21T06:29:17;46.60;;;24.63;;
3443;SDS011;1736;52.068;6.968;2023-11-21T06:31:44;56.23;;;26.03;;
3443;SDS011;1736;52.068;6.968;2023-11-21T06:34:11;60.03;;;25.63;;
3443;SDS011;1736;52.068;6.968;2023-11-21T06:36:38;46.73;;;23.27;;
3443;SDS011;1736;52.068;6.968;2023-11-21T06:39:05;48.60;;;24.40;;
3443;SDS011;1736;52.068;6.968;2023-11-21T06:41:34;49.30;;;23.30;;
3443;SDS011;1736;52.068;6.968;2023-11-21T06:44:04;55.73;;;25.10;;
3443;SDS011;1736;52.068;6.968;2023-11-21T06:46:30;46.90;;;23.03;;
3443;SDS011;1736;52.068;6.968;2023-11-21T06:48:57;45.30;;;22.80;;
3443;SDS011;1736;52.068;6.968;2023-11-21T06:51:23;49.50;;;24.70;;
3443;SDS011;1736;52.068;6.968;2023-11-21T06:53:50;50.90;;;24.47;;
3443;SDS011;1736;52.068;6.968;2023-11-21T06:56:17;64.80;;;25.90;;
3443;SDS011;1736;52.068;6.968;2023-11-21T06:58:45;52.93;;;25.10;;
3443;SDS011;1736;52.068;6.968;2023-11-21T07:01:13;56.97;;;25.13;;
3443;SDS011;1736;52.068;6.968;2023-11-21T07:03:40;60.20;;;26.30;;
3443;SDS011;1736;52.068;6.968;2023-11-21T07:06:07;92.13;;;28.57;;
3443;SDS011;1736;52.068;6.968;2023-11-21T07:08:34;55.00;;;24.47;;
3443;SDS011;1736;52.068;6.968;2023-11-21T07:11:01;52.93;;;25.03;;
3443;SDS011;1736;52.068;6.968;2023-11-21T07:13:28;52.60;;;25.27;;
3443;SDS011;1736;52.068;6.968;2023-11-21T07:15:56;55.70;;;25.77;;
3443;SDS011;1736;52.068;6.968;2023-11-21T07:18:22;49.67;;;23.70;;
3443;SDS011;1736;52.068;6.968;2023-11-21T07:20:49;51.43;;;24.70;;
3443;SDS011;1736;52.068;6.968;2023-11-21T07:23:16;45.10;;;22.93;;
3443;SDS011;1736;52.068;6.968;2023-11-21T07:25:43;75.50;;;25.43;;
3443;SDS011;1736;52.068;6.968;2023-11-21T07:28:10;52.50;;;23.93;;
3443;SDS011;1736;52.068;6.968;2023-11-21T07:30:36;65.37;;;26.20;;
3443;SDS011;1736;52.068;6.968;2023-11-21T07:33:04;52.30;;;24.13;;
3443;SDS011;1736;52.068;6.968;2023-11-21T07:35:32;45.37;;;22.67;;
3443;SDS011;1736;52.068;6.968;2023-11-21T07:37:59;39.90;;;21.00;;
3443;SDS011;1736;52.068;6.968;2023-11-21T07:40:25;40.53;;;21.70;;
3443;SDS011;1736;52.068;6.968;2023-11-21T07:42:52;43.67;;;23.07;;
3443;SDS011;1736;52.068;6.968;2023-11-21T07:45:22;49.27;;;23.17;;
3443;SDS011;1736;52.068;6.968;2023-11-21T07:47:49;46.03;;;23.70;;
3443;SDS011;1736;52.068;6.968;2023-11-21T07:50:17;40.40;;;20.53;;
3443;SDS011;1736;52.068;6.968;2023-11-21T07:52:45;42.17;;;21.57;;
3443;SDS011;1736;52.068;6.968;2023-11-21T07:55:11;53.40;;;23.47;;
3443;SDS011;1736;52.068;6.968;2023-11-21T07:57:39;50.43;;;22.90;;
3443;SDS011;1736;52.068;6.968;2023-11-21T08:00:06;46.80;;;23.90;;
3443;SDS011;1736;52.068;6.968;2023-11-21T08:02:34;46.80;;;22.60;;
3443;SDS011;1736;52.068;6.968;2023-11-21T08:05:00;44.60;;;23.40;;
3443;SDS011;1736;52.068;6.968;2023-11-21T08:07:28;45.07;;;22.47;;
3443;SDS011;1736;52.068;6.968;2023-11-21T08:09:55;44.97;;;22.67;;
3443;SDS011;1736;52.068;6.968;2023-11-21T08:12:21;46.90;;;23.03;;
3443;SDS011;1736;52.068;6.968;2023-11-21T08:14:49;51.43;;;23.80;;
3443;SDS011;1736;52.068;6.968;2023-11-21T08:17:15;45.63;;;23.77;;
3443;SDS011;1736;52.068;6.968;2023-11-21T08:19:42;57.00;;;24.20;;
3443;SDS011;1736;52.068;6.968;2023-11-21T08:22:13;46.37;;;23.03;;
3443;SDS011;1736;52.068;6.968;2023-11-21T08:24:42;47.60;;;22.90;;
3443;SDS011;1736;52.068;6.968;2023-11-21T08:27:09;41.00;;;22.10;;
3443;SDS011;1736;52.068;6.968;2023-11-21T08:29:36;46.07;;;23.00;;
3443;SDS011;1736;52.068;6.968;2023-11-21T08:32:03;40.37;;;21.03;;
3443;SDS011;1736;52.068;6.968;2023-11-21T08:34:30;55.00;;;23.67;;
3443;SDS011;1736;52.068;6.968;2023-11-21T08:36:57;48.30;;;21.63;;
3443;SDS011;1736;52.068;6.968;2023-11-21T08:39:23;47.60;;;22.70;;
3443;SDS011;1736;52.068;6.968;2023-11-21T08:41:51;50.70;;;22.50;;
3443;SDS011;1736;52.068;6.968;2023-11-21T08:44:18;45.47;;;22.77;;
3443;SDS011;1736;52.068;6.968;2023-11-21T08:46:45;41.00;;;21.63;;
3443;SDS011;1736;52.068;6.968;2023-11-21T08:49:11;43.97;;;21.77;;
3443;SDS011;1736;52.068;6.968;2023-11-21T08:51:39;49.10;;;23.90;;
3443;SDS011;1736;52.068;6.968;2023-11-21T08:54:06;45.67;;;23.60;;
3443;SDS011;1736;52.068;6.968;2023-11-21T08:56:33;50.30;;;24.50;;
3443;SDS011;1736;52.068;6.968;2023-11-21T08:59:01;47.90;;;23.27;;
3443;SDS011;1736;52.068;6.968;2023-11-21T09:01:28;43.93;;;22.77;;
3443;SDS011;1736;52.068;6.968;2023-11-21T09:03:56;46.63;;;23.00;;
3443;SDS011;1736;52.068;6.968;2023-11-21T09:06:22;56.47;;;23.90;;
3443;SDS011;1736;52.068;6.968;2023-11-21T09:08:49;53.93;;;24.40;;
3443;SDS011;1736;52.068;6.968;2023-11-21T09:11:16;45.07;;;22.80;;
3443;SDS011;1736;52.068;6.968;2023-11-21T09:13:43;58.97;;;24.30;;
3443;SDS011;1736;52.068;6.968;2023-11-21T09:16:13;54.37;;;25.97;;
3443;SDS011;1736;52.068;6.968;2023-11-21T09:18:40;45.50;;;23.30;;
3443;SDS011;1736;52.068;6.968;2023-11-21T09:21:07;43.10;;;22.67;;
3443;SDS011;1736;52.068;6.968;2023-11-21T09:23:34;51.20;;;24.50;;
3443;SDS011;1736;52.068;6.968;2023-11-21T09:26:00;54.50;;;23.73;;
3443;SDS011;1736;52.068;6.968;2023-11-21T09:28:27;48.97;;;22.00;;
3443;SDS011;1736;52.068;6.968;2023-11-21T09:30:54;59.00;;;22.57;;
3443;SDS011;1736;52.068;6.968;2023-11-21T09:33:22;41.53;;;20.60;;
3443;SDS011;1736;52.068;6.968;2023-11-21T09:35:50;38.67;;;21.27;;
3443;SDS011;1736;52.068;6.968;2023-11-21T09:38:17;40.10;;;20.50;;
3443;SDS011;1736;52.068;6.968;2023-11-21T09:40:44;40.10;;;20.90;;
3443;SDS011;1736;52.068;6.968;2023-11-21T09:43:14;35.77;;;20.00;;
3443;SDS011;1736;52.068;6.968;2023-11-21T09:45:44;40.30;;;21.20;;
3443;SDS011;1736;52.068;6.968;2023-11-21T09:48:12;39.83;;;20.17;;
3443;SDS011;1736;52.068;6.968;2023-11-21T09:50:40;36.03;;;19.00;;
3443;SDS011;1736;52.068;6.968;2023-11-21T09:53:09;35.80;;;18.97;;
3443;SDS011;1736;52.068;6.968;2023-11-21T09:55:42;43.50;;;20.00;;
3443;SDS011;1736;52.068;6.968;2023-11-21T09:58:09;37.80;;;20.37;;
3443;SDS011;1736;52.068;6.968;2023-11-21T10:00:39;37.10;;;18.60;;
3443;SDS011;1736;52.068;6.968;2023-11-21T10:03:07;35.37;;;18.83;;
3443;SDS011;1736;52.068;6.968;2023-11-21T10:05:33;35.53;;;18.67;;
3443;SDS011;1736;52.068;6.968;2023-11-21T10:08:01;33.13;;;18.77;;
3443;SDS011;1736;52.068;6.968;2023-11-21T10:10:31;38.43;;;20.20;;
3443;SDS011;1736;52.068;6.968;2023-11-21T10:13:00;37.30;;;20.23;;
3443;SDS011;1736;52.068;6.968;2023-11-21T10:15:31;39.43;;;19.87;;
3443;SDS011;1736;52.068;6.968;2023-11-21T10:18:01;37.77;;;21.00;;
3443;SDS011;1736;52.068;6.968;2023-11-21T10:20:29;39.20;;;22.07;;
3443;SDS011;1736;52.068;6.968;2023-11-21T10:22:56;36.43;;;19.90;;
3443;SDS011;1736;52.068;6.968;2023-11-21T10:25:24;38.10;;;20.53;;
3443;SDS011;1736;52.068;6.968;2023-11-21T10:27:55;37.77;;;20.20;;
3443;SDS011;1736;52.068;6.968;2023-11-21T10:30:27;30.00;;;17.37;;
3443;SDS011;1736;52.068;6.968;2023-11-21T10:32:58;35.03;;;19.10;;
3443;SDS011;1736;52.068;6.968;2023-11-21T10:35:25;31.63;;;18.10;;
3443;SDS011;1736;52.068;6.968;2023-11-21T10:38:05;33.30;;;18.10;;
3443;SDS011;1736;52.068;6.968;2023-11-21T10:40:34;25.70;;;15.43;;
3443;SDS011;1736;52.068;6.968;2023-11-21T10:43:05;33.57;;;18.00;;
3443;SDS011;1736;52.068;6.968;2023-11-21T10:45:33;30.57;;;17.37;;
3443;SDS011;1736;52.068;6.968;2023-11-21T10:48:04;31.57;;;16.40;;
3443;SDS011;1736;52.068;6.968;2023-11-21T10:50:32;32.43;;;17.60;;
3443;SDS011;1736;52.068;6.968;2023-11-21T10:53:01;27.87;;;16.37;;
3443;SDS011;1736;52.068;6.968;2023-11-21T10:55:29;28.23;;;16.53;;
3443;SDS011;1736;52.068;6.968;2023-11-21T10:57:58;29.77;;;16.70;;
3443;SDS011;1736;52.068;6.968;2023-11-21T11:00:25;37.53;;;17.40;;
3443;SDS011;1736;52.068;6.968;2023-11-21T11:02:53;31.30;;;16.33;;
3443;SDS011;1736;52.068;6.968;2023-11-21T11:05:21;25.77;;;14.37;;
3443;SDS011;1736;52.068;6.968;2023-11-21T11:07:50;27.33;;;14.43;;
3443;SDS011;1736;52.068;6.968;2023-11-21T11:10:19;27.23;;;14.27;;
3443;SDS011;1736;52.068;6.968;2023-11-21T11:12:48;26.57;;;14.30;;
3443;SDS011;1736;52.068;6.968;2023-11-21T11:15:16;26.80;;;14.00;;
3443;SDS011;1736;52.068;6.968;2023-11-21T11:17:43;25.63;;;12.60;;
3443;SDS011;1736;52.068;6.968;2023-11-21T11:20:11;24.93;;;14.47;;
3443;SDS011;1736;52.068;6.968;2023-11-21T11:22:42;25.83;;;13.33;;
3443;SDS011;1736;52.068;6.968;2023-11-21T11:25:24;22.90;;;13.33;;
3443;SDS011;1736;52.068;6.968;2023-11-21T11:28:17;28.33;;;15.03;;
3443;SDS011;1736;52.068;6.968;2023-11-21T11:30:53;27.10;;;14.07;;
3443;SDS011;1736;52.068;6.968;2023-11-21T11:33:30;28.20;;;14.47;;
3443;SDS011;1736;52.068;6.968;2023-11-21T11:36:03;27.23;;;13.83;;
3443;SDS011;1736;52.068;6.968;2023-11-21T11:38:33;23.67;;;13.60;;
3443;SDS011;1736;52.068;6.968;2023-11-21T11:41:01;24.10;;;13.60;;
3443;SDS011;1736;52.068;6.968;2023-11-21T11:43:29;23.70;;;12.63;;
3443;SDS011;1736;52.068;6.968;2023-11-21T11:45:59;19.87;;;12.43;;
3443;SDS011;1736;52.068;6.968;2023-11-21T11:48:28;20.60;;;11.97;;
3443;SDS011;1736;52.068;6.968;2023-11-21T11:51:01;25.23;;;13.33;;
3443;SDS011;1736;52.068;6.968;2023-11-21T11:53:33;22.23;;;11.73;;
3443;SDS011;1736;52.068;6.968;2023-11-21T11:58:50;19.93;;;11.50;;
3443;SDS011;1736;52.068;6.968;2023-11-21T12:01:20;22.17;;;12.13;;
3443;SDS011;1736;52.068;6.968;2023-11-21T12:06:50;25.73;;;12.57;;
3443;SDS011;1736;52.068;6.968;2023-11-21T12:09:18;19.90;;;11.97;;
3443;SDS011;1736;52.068;6.968;2023-11-21T12:11:45;23.97;;;11.67;;
3443;SDS011;1736;52.068;6.968;2023-11-21T12:14:12;21.40;;;11.40;;
3443;SDS011;1736;52.068;6.968;2023-11-21T12:16:41;18.57;;;10.63;;
3443;SDS011;1736;52.068;6.968;2023-11-21T12:19:08;20.13;;;11.50;;
3443;SDS011;1736;52.068;6.968;2023-11-21T12:21:36;21.47;;;11.17;;
3443;SDS011;1736;52.068;6.968;2023-11-21T12:24:03;21.70;;;11.27;;
3443;SDS011;1736;52.068;6.968;2023-11-21T12:26:33;23.03;;;12.20;;
3443;SDS011;1736;52.068;6.968;2023-11-21T12:29:00;18.27;;;10.23;;
3443;SDS011;1736;52.068;6.968;2023-11-21T12:31:29;20.20;;;10.53;;
3443;SDS011;1736;52.068;6.968;2023-11-21T12:33:57;22.73;;;10.87;;
3443;SDS011;1736;52.068;6.968;2023-11-21T12:36:24;18.97;;;10.53;;
3443;SDS011;1736;52.068;6.968;2023-11-21T12:38:51;18.30;;;11.00;;
3443;SDS011;1736;52.068;6.968;2023-11-21T12:41:18;19.27;;;10.83;;
3443;SDS011;1736;52.068;6.968;2023-11-21T12:43:46;17.70;;;10.50;;
3443;SDS011;1736;52.068;6.968;2023-11-21T12:46:12;17.10;;;9.70;;
3443;SDS011;1736;52.068;6.968;2023-11-21T12:48:41;20.13;;;10.47;;
3443;SDS011;1736;52.068;6.968;2023-11-21T12:51:10;19.10;;;9.80;;
3443;SDS011;1736;52.068;6.968;2023-11-21T12:53:39;17.73;;;10.23;;
3443;SDS011;1736;52.068;6.968;2023-11-21T12:56:06;16.77;;;9.87;;
3443;SDS011;1736;52.068;6.968;2023-11-21T12:58:34;19.43;;;10.53;;
3443;SDS011;1736;52.068;6.968;2023-11-21T13:01:01;18.70;;;10.50;;
3443;SDS011;1736;52.068;6.968;2023-11-21T13:03:29;26.50;;;11.70;;
3443;SDS011;1736;52.068;6.968;2023-11-21T13:05:56;20.30;;;10.50;;
3443;SDS011;1736;52.068;6.968;2023-11-21T13:08:25;18.40;;;11.10;;
3443;SDS011;1736;52.068;6.968;2023-11-21T13:10:56;18.03;;;11.17;;
3443;SDS011;1736;52.068;6.968;2023-11-21T13:13:24;18.93;;;10.70;;
3443;SDS011;1736;52.068;6.968;2023-11-21T13:15:53;16.73;;;10.67;;
3443;SDS011;1736;52.068;6.968;2023-11-21T13:18:21;21.60;;;10.63;;
3443;SDS011;1736;52.068;6.968;2023-11-21T13:20:49;16.80;;;10.73;;
3443;SDS011;1736;52.068;6.968;2023-11-21T13:23:16;20.03;;;11.40;;
3443;SDS011;1736;52.068;6.968;2023-11-21T13:25:43;18.00;;;10.73;;
3443;SDS011;1736;52.068;6.968;2023-11-21T13:28:10;19.67;;;11.13;;
3443;SDS011;1736;52.068;6.968;2023-11-21T13:30:38;17.13;;;10.43;;
3443;SDS011;1736;52.068;6.968;2023-11-21T13:33:05;19.03;;;11.33;;
3443;SDS011;1736;52.068;6.968;2023-11-21T13:35:33;17.13;;;10.90;;
3443;SDS011;1736;52.068;6.968;2023-11-21T13:38:03;20.80;;;12.50;;
3443;SDS011;1736;52.068;6.968;2023-11-21T13:40:32;21.37;;;12.47;;
3443;SDS011;1736;52.068;6.968;2023-11-21T13:43:06;17.87;;;12.07;;
3443;SDS011;1736;52.068;6.968;2023-11-21T13:45:34;21.20;;;12.60;;
3443;SDS011;1736;52.068;6.968;2023-11-21T13:48:01;20.03;;;11.90;;
3443;SDS011;1736;52.068;6.968;2023-11-21T13:50:30;17.63;;;10.13;;
3443;SDS011;1736;52.068;6.968;2023-11-21T13:52:59;14.20;;;9.30;;
3443;SDS011;1736;52.068;6.968;2023-11-21T13:55:33;15.87;;;10.93;;
3443;SDS011;1736;52.068;6.968;2023-11-21T13:58:00;11.87;;;9.20;;
3443;SDS011;1736;52.068;6.968;2023-11-21T14:00:35;15.83;;;8.70;;
3443;SDS011;1736;52.068;6.968;2023-11-21T14:03:06;13.80;;;9.47;;
3443;SDS011;1736;52.068;6.968;2023-11-21T14:05:42;12.73;;;9.13;;
3443;SDS011;1736;52.068;6.968;2023-11-21T14:08:09;13.50;;;8.67;;
3443;SDS011;1736;52.068;6.968;2023-11-21T14:10:38;11.80;;;8.63;;
3443;SDS011;1736;52.068;6.968;2023-11-21T14:13:08;13.80;;;9.50;;
3443;SDS011;1736;52.068;6.968;2023-11-21T14:15:38;12.60;;;9.03;;
3443;SDS011;1736;52.068;6.968;2023-11-21T14:18:07;10.20;;;8.70;;
3443;SDS011;1736;52.068;6.968;2023-11-21T14:20:35;11.50;;;9.30;;
3443;SDS011;1736;52.068;6.968;2023-11-21T14:23:02;11.07;;;9.00;;
3443;SDS011;1736;52.068;6.968;2023-11-21T14:25:29;11.90;;;9.93;;
3443;SDS011;1736;52.068;6.968;2023-11-21T14:27:57;12.30;;;9.20;;
3443;SDS011;1736;52.068;6.968;2023-11-21T14:30:23;11.60;;;9.27;;
3443;SDS011;1736;52.068;6.968;2023-11-21T14:32:52;12.87;;;9.87;;
3443;SDS011;1736;52.068;6.968;2023-11-21T14:35:19;18.33;;;11.80;;
3443;SDS011;1736;52.068;6.968;2023-11-21T14:37:45;16.10;;;11.43;;
3443;SDS011;1736;52.068;6.968;2023-11-21T14:40:12;16.93;;;11.23;;
3443;SDS011;1736;52.068;6.968;2023-11-21T14:42:41;14.17;;;9.60;;
3443;SDS011;1736;52.068;6.968;2023-11-21T14:45:08;15.00;;;10.93;;
3443;SDS011;1736;52.068;6.968;2023-11-21T14:47:37;12.40;;;9.40;;
3443;SDS011;1736;52.068;6.968;2023-11-21T14:50:10;11.73;;;9.10;;
3443;SDS011;1736;52.068;6.968;2023-11-21T14:53:04;10.17;;;8.30;;
3443;SDS011;1736;52.068;6.968;2023-11-21T14:55:31;12.73;;;8.03;;
3443;SDS011;1736;52.068;6.968;2023-11-21T14:58:06;9.97;;;8.10;;